AGROMETEOROLOŠKI PORTAL

vinorodna pokrajina

Temelj dobrega kmetovanja

Pregled podatkov za lokacijo Celje - Medlog ARSO, meteorološka postaja 102

Pregled senzorjev na lokaciji

ID Ime Zadnja
vrednost
Datum in čas
meritve
(lokalni čas)
Tip
senzorja
6027 Zračni tlak (hPa) 989 hPa 1.2.2023 13:00 ARSO
2277 Sončno sevanje (W/m2) 456 W/m2 1.2.2023 13:00 ARSO
2283 Padavine (mm) 0 mm 1.2.2023 13:00 ARSO
2271 Relativna zračna vlaga (2 m) (% RH) 62 % RH 1.2.2023 13:00 ARSO
2274 Temperatura tal (5 cm) (°C) 1,5 °C 1.2.2023 13:00 ARSO
2275 Temperatura tal (10 cm) (°C) 1,9 °C 1.2.2023 13:00 ARSO
2276 Temperatura tal (30 cm) (°C) 2,8 °C 1.2.2023 13:00 ARSO
2268 Temperatura (2 m) (°C) 4,1 °C 1.2.2023 13:00 ARSO
2279 Smer vetra (2 m) (°) 270 ° 1.2.2023 13:00 ARSO
2278 Hitrost vetra (2 m) (km/h) 4 km/h 1.2.2023 13:00 ARSO

Pregled podatkov zadnjih 24 ur

Zap.
št.
Datum in čas
(lokalni čas)
Celje - Medlog ARSO
Zračni
tlak
Sončno
sevanje
Padavine Relativna
zračna
vlaga
(2
m)
Temperatura
tal
(5
cm)
Temperatura
tal
(10
cm)
Temperatura
tal
(30
cm)
Temperatura
(2
m)
Smer
vetra
(2
m)
Hitrost
vetra
(2
m)
1 1.2.2023 13:00 989 456 0 62 1,5 1,9 2,8 4,1 270 4
2 1.2.2023 12:30 989,8 459 0 66 1,4 1,9 2,8 3,3 278 3
3 1.2.2023 12:00 990,2 452 0 69 1,4 1,9 2,8 1,8 261 3
4 1.2.2023 11:30 990,8 432 0 74 1,5 2 2,8 0,4 336 2
5 1.2.2023 11:00 991,1 414 0 75 1,5 1,9 2,8 -0,4 291 2
6 1.2.2023 10:30 991,2 412 0 77 1,5 1,9 2,8 -0,6 141 2
7 1.2.2023 10:00 991,1 353 0 86 1,5 2 2,8 -3 221 1
8 1.2.2023 09:30 991,3 281 0 89 1,5 2 2,8 -3,6 50 2
9 1.2.2023 09:00 991,3 140 0 94 1,5 2 2,8 -4,8 103 3
10 1.2.2023 08:30 991,1 47 0 94 1,5 2 2,8 -7,1 94 3
11 1.2.2023 08:00 991,1 15 0 94 1,5 2 2,8 -7,5 270 3
12 1.2.2023 07:30 991,1 2 0 94 1,6 2 2,8 -7,7 275 3
13 1.2.2023 07:00 991,2 1 0 93 1,6 2 2,8 -7,3 318 3
14 1.2.2023 06:30 991,1 0 0 95 1,6 2,1 2,8 -6,7 265 3
15 1.2.2023 06:00 991,2 0 0 94 1,6 2,1 2,8 -6,8 199 3
16 1.2.2023 05:30 991,1 0 0 94 1,6 2,1 2,8 -6,5 344 4
17 1.2.2023 05:00 990,9 0 0 96 1,6 2,1 2,9 -6,4 256 6
18 1.2.2023 04:30 990,8 0 0 95 1,6 2,1 2,8 -6,7 303 4
19 1.2.2023 04:00 990,9 0 0 96 1,7 2,1 2,9 -6,6 260 4
20 1.2.2023 03:30 991,1 0 0 96 1,7 2,1 2,8 -5,8 197 3
21 1.2.2023 03:00 991,2 0 0 95 1,7 2,1 2,9 -6 291 3
22 1.2.2023 02:30 991,4 0 0 96 1,7 2,1 2,9 -5,4 255 4
23 1.2.2023 02:00 991,5 0 0 95 1,7 2,1 2,9 -5,2 126 3
24 1.2.2023 01:30 991,5 0 0 95 1,7 2,1 2,9 -5,5 268 5
25 1.2.2023 01:00 991,4 0 0 93 1,7 2,1 2,9 -5,2 287 4
26 1.2.2023 00:30 991,7 0 0 96 1,7 2,1 2,9 -4,3 227 3
27 1.2.2023 00:00 991,7 0 0 94 1,7 2,1 2,9 -4,4 264 3
28 31.1.2023 23:30 991,6 0 0 94 1,7 2,1 2,9 -4,9 266 8
29 31.1.2023 23:00 991,8 0 0 94 1,7 2,1 2,9 -5 247 8
30 31.1.2023 22:30 991,8 0 0 90 1,7 2,1 2,9 -3,8 216 5
31 31.1.2023 22:00 992 0 0 91 1,7 2,1 2,9 -2,6 91 3
32 31.1.2023 21:30 991,9 0 0 92 1,7 2,1 2,9 -3,7 220 6
33 31.1.2023 21:00 991,8 0 0 92 1,7 2,1 2,9 -3,1 251 3
34 31.1.2023 20:30 991,5 0 0 91 1,7 2,1 2,9 -2,6 255 5
35 31.1.2023 20:00 991,2 0 0 89 1,7 2,1 2,9 -2,5 263 5
36 31.1.2023 19:30 991,2 0 0 89 1,7 2,1 2,9 -1,6 263 3
37 31.1.2023 19:00 991,1 0 0 87 1,7 2,1 2,9 -1,1 224 3
38 31.1.2023 18:30 991,3 0 0 86 1,7 2,1 2,9 -0,3 251 3
39 31.1.2023 18:00 991,3 0 0 81 1,7 2,1 2,9 0,9 240 3
40 31.1.2023 17:30 991,3 2 0 81 1,6 2,1 2,9 1,6 181 2
41 31.1.2023 17:00 991,4 18 0 74 1,6 2,1 2,9 2,5 229 3
42 31.1.2023 16:30 991,4 65 0 70 1,6 2,1 2,9 3,2 212 3
43 31.1.2023 16:00 991,3 118 0 59 1,6 2,1 2,9 5,9 186 3
44 31.1.2023 15:30 991,5 211 0 54 1,6 2,1 2,9 7,9 143 3
45 31.1.2023 15:00 991,7 301 0 47 1,6 2,1 2,9 9 47 1
46 31.1.2023 14:30 991,6 354 0 41 1,6 2,1 3 9,8 117 2
47 31.1.2023 14:00 991,7 403 0 34 1,6 2,1 3 8,5 336 2
48 31.1.2023 13:30 991,9 439 0 44 1,6 2,1 3 6,8 252 3